sensor_id;sensor_type;location;lat;lon;timestamp;P1;durP1;ratioP1;P2;durP2;ratioP2
836;SDS011;400;53.550;9.932;2023-04-06T00:00:53;3.42;;;3.05;;
836;SDS011;400;53.550;9.932;2023-04-06T00:03:20;3.80;;;2.97;;
836;SDS011;400;53.550;9.932;2023-04-06T00:05:47;3.03;;;2.63;;
836;SDS011;400;53.550;9.932;2023-04-06T00:08:14;3.80;;;3.00;;
836;SDS011;400;53.550;9.932;2023-04-06T00:10:42;3.35;;;3.00;;
836;SDS011;400;53.550;9.932;2023-04-06T00:13:10;4.13;;;3.03;;
836;SDS011;400;53.550;9.932;2023-04-06T00:15:37;3.03;;;2.83;;
836;SDS011;400;53.550;9.932;2023-04-06T00:18:04;4.22;;;3.20;;
836;SDS011;400;53.550;9.932;2023-04-06T00:20:31;3.20;;;3.00;;
836;SDS011;400;53.550;9.932;2023-04-06T00:22:58;3.13;;;2.92;;
836;SDS011;400;53.550;9.932;2023-04-06T00:25:25;3.25;;;3.00;;
836;SDS011;400;53.550;9.932;2023-04-06T00:27:53;3.08;;;2.85;;
836;SDS011;400;53.550;9.932;2023-04-06T00:30:20;3.63;;;3.33;;
836;SDS011;400;53.550;9.932;2023-04-06T00:32:47;3.35;;;3.05;;
836;SDS011;400;53.550;9.932;2023-04-06T00:35:14;5.35;;;2.60;;
836;SDS011;400;53.550;9.932;2023-04-06T00:37:41;2.78;;;2.53;;
836;SDS011;400;53.550;9.932;2023-04-06T00:40:09;4.05;;;3.40;;
836;SDS011;400;53.550;9.932;2023-04-06T00:42:36;4.07;;;3.00;;
836;SDS011;400;53.550;9.932;2023-04-06T00:45:08;3.45;;;2.75;;
836;SDS011;400;53.550;9.932;2023-04-06T00:47:36;3.40;;;3.10;;
836;SDS011;400;53.550;9.932;2023-04-06T00:50:03;4.88;;;3.10;;
836;SDS011;400;53.550;9.932;2023-04-06T00:52:31;4.45;;;3.50;;
836;SDS011;400;53.550;9.932;2023-04-06T00:54:58;5.10;;;4.15;;
836;SDS011;400;53.550;9.932;2023-04-06T00:57:25;6.18;;;3.80;;
836;SDS011;400;53.550;9.932;2023-04-06T00:59:52;3.58;;;3.28;;
836;SDS011;400;53.550;9.932;2023-04-06T01:02:21;3.55;;;3.25;;
836;SDS011;400;53.550;9.932;2023-04-06T01:04:49;4.00;;;3.60;;
836;SDS011;400;53.550;9.932;2023-04-06T01:07:16;3.58;;;3.28;;
836;SDS011;400;53.550;9.932;2023-04-06T01:09:42;3.72;;;3.40;;
836;SDS011;400;53.550;9.932;2023-04-06T01:12:09;4.38;;;3.35;;
836;SDS011;400;53.550;9.932;2023-04-06T01:14:36;4.43;;;4.00;;
836;SDS011;400;53.550;9.932;2023-04-06T01:17:03;4.25;;;3.60;;
836;SDS011;400;53.550;9.932;2023-04-06T01:19:31;5.13;;;3.90;;
836;SDS011;400;53.550;9.932;2023-04-06T01:21:58;4.55;;;4.15;;
836;SDS011;400;53.550;9.932;2023-04-06T01:24:27;4.18;;;3.17;;
836;SDS011;400;53.550;9.932;2023-04-06T01:26:54;4.45;;;4.05;;
836;SDS011;400;53.550;9.932;2023-04-06T01:29:21;4.13;;;3.83;;
836;SDS011;400;53.550;9.932;2023-04-06T01:31:48;3.50;;;3.25;;
836;SDS011;400;53.550;9.932;2023-04-06T01:34:15;4.10;;;3.53;;
836;SDS011;400;53.550;9.932;2023-04-06T01:36:42;3.72;;;3.35;;
836;SDS011;400;53.550;9.932;2023-04-06T01:39:09;3.90;;;3.60;;
836;SDS011;400;53.550;9.932;2023-04-06T01:41:37;4.38;;;3.80;;
836;SDS011;400;53.550;9.932;2023-04-06T01:44:04;3.83;;;3.53;;
836;SDS011;400;53.550;9.932;2023-04-06T01:46:31;6.45;;;4.60;;
836;SDS011;400;53.550;9.932;2023-04-06T01:48:58;4.47;;;4.07;;
836;SDS011;400;53.550;9.932;2023-04-06T01:51:25;4.60;;;4.20;;
836;SDS011;400;53.550;9.932;2023-04-06T01:53:52;4.88;;;4.03;;
836;SDS011;400;53.550;9.932;2023-04-06T01:56:20;4.43;;;4.03;;
836;SDS011;400;53.550;9.932;2023-04-06T01:58:48;6.60;;;4.25;;
836;SDS011;400;53.550;9.932;2023-04-06T02:01:15;5.50;;;4.55;;
836;SDS011;400;53.550;9.932;2023-04-06T02:03:42;6.53;;;4.88;;
836;SDS011;400;53.550;9.932;2023-04-06T02:06:09;5.10;;;4.60;;
836;SDS011;400;53.550;9.932;2023-04-06T02:08:38;4.47;;;4.07;;
836;SDS011;400;53.550;9.932;2023-04-06T02:11:05;5.25;;;4.68;;
836;SDS011;400;53.550;9.932;2023-04-06T02:13:32;5.18;;;4.38;;
836;SDS011;400;53.550;9.932;2023-04-06T02:16:01;5.15;;;4.68;;
836;SDS011;400;53.550;9.932;2023-04-06T02:18:29;4.35;;;4.05;;
836;SDS011;400;53.550;9.932;2023-04-06T02:20:56;5.40;;;4.93;;
836;SDS011;400;53.550;9.932;2023-04-06T02:23:23;5.82;;;4.20;;
836;SDS011;400;53.550;9.932;2023-04-06T02:25:50;4.40;;;3.88;;
836;SDS011;400;53.550;9.932;2023-04-06T02:28:17;5.03;;;4.28;;
836;SDS011;400;53.550;9.932;2023-04-06T02:30:44;4.88;;;4.38;;
836;SDS011;400;53.550;9.932;2023-04-06T02:33:13;4.95;;;4.47;;
836;SDS011;400;53.550;9.932;2023-04-06T02:35:40;5.22;;;4.72;;
836;SDS011;400;53.550;9.932;2023-04-06T02:38:07;5.97;;;4.55;;
836;SDS011;400;53.550;9.932;2023-04-06T02:40:34;9.90;;;5.60;;
836;SDS011;400;53.550;9.932;2023-04-06T02:43:01;4.78;;;4.22;;
836;SDS011;400;53.550;9.932;2023-04-06T02:45:28;5.63;;;4.25;;
836;SDS011;400;53.550;9.932;2023-04-06T02:47:55;4.70;;;4.40;;
836;SDS011;400;53.550;9.932;2023-04-06T02:50:23;5.70;;;5.00;;
836;SDS011;400;53.550;9.932;2023-04-06T02:52:51;5.80;;;5.30;;
836;SDS011;400;53.550;9.932;2023-04-06T02:55:18;7.55;;;5.03;;
836;SDS011;400;53.550;9.932;2023-04-06T02:57:45;5.55;;;5.07;;
836;SDS011;400;53.550;9.932;2023-04-06T03:00:12;6.22;;;5.20;;
836;SDS011;400;53.550;9.932;2023-04-06T03:02:39;5.35;;;4.88;;
836;SDS011;400;53.550;9.932;2023-04-06T03:05:06;6.20;;;5.65;;
836;SDS011;400;53.550;9.932;2023-04-06T03:07:35;5.75;;;5.25;;
836;SDS011;400;53.550;9.932;2023-04-06T03:10:02;6.93;;;5.97;;
836;SDS011;400;53.550;9.932;2023-04-06T03:12:32;7.00;;;5.50;;
836;SDS011;400;53.550;9.932;2023-04-06T03:15:00;7.43;;;6.05;;
836;SDS011;400;53.550;9.932;2023-04-06T03:17:27;6.95;;;6.32;;
836;SDS011;400;53.550;9.932;2023-04-06T03:19:54;6.45;;;5.85;;
836;SDS011;400;53.550;9.932;2023-04-06T03:22:21;5.50;;;5.10;;
836;SDS011;400;53.550;9.932;2023-04-06T03:24:50;7.57;;;5.78;;
836;SDS011;400;53.550;9.932;2023-04-06T03:27:17;6.63;;;6.03;;
836;SDS011;400;53.550;9.932;2023-04-06T03:29:44;7.22;;;6.53;;
836;SDS011;400;53.550;9.932;2023-04-06T03:32:11;8.18;;;6.50;;
836;SDS011;400;53.550;9.932;2023-04-06T03:34:37;6.65;;;6.07;;
836;SDS011;400;53.550;9.932;2023-04-06T03:37:05;7.40;;;6.30;;
836;SDS011;400;53.550;9.932;2023-04-06T03:39:31;7.22;;;6.50;;
836;SDS011;400;53.550;9.932;2023-04-06T03:42:00;7.95;;;6.80;;
836;SDS011;400;53.550;9.932;2023-04-06T03:44:27;7.20;;;6.60;;
836;SDS011;400;53.550;9.932;2023-04-06T03:46:54;7.63;;;6.45;;
836;SDS011;400;53.550;9.932;2023-04-06T03:49:21;8.77;;;6.90;;
836;SDS011;400;53.550;9.932;2023-04-06T03:51:48;7.78;;;6.35;;
836;SDS011;400;53.550;9.932;2023-04-06T03:54:15;7.30;;;6.60;;
836;SDS011;400;53.550;9.932;2023-04-06T03:56:43;8.50;;;7.38;;
836;SDS011;400;53.550;9.932;2023-04-06T03:59:11;8.07;;;7.28;;
836;SDS011;400;53.550;9.932;2023-04-06T04:01:38;8.00;;;7.30;;
836;SDS011;400;53.550;9.932;2023-04-06T04:04:05;7.13;;;6.50;;
836;SDS011;400;53.550;9.932;2023-04-06T04:06:32;8.82;;;7.25;;
836;SDS011;400;53.550;9.932;2023-04-06T04:08:59;7.70;;;6.88;;
836;SDS011;400;53.550;9.932;2023-04-06T04:11:26;7.20;;;6.50;;
836;SDS011;400;53.550;9.932;2023-04-06T04:13:53;7.35;;;6.65;;
836;SDS011;400;53.550;9.932;2023-04-06T04:16:21;10.20;;;6.22;;
836;SDS011;400;53.550;9.932;2023-04-06T04:18:48;7.45;;;6.28;;
836;SDS011;400;53.550;9.932;2023-04-06T04:21:15;8.00;;;7.20;;
836;SDS011;400;53.550;9.932;2023-04-06T04:23:42;7.95;;;7.10;;
836;SDS011;400;53.550;9.932;2023-04-06T04:26:09;7.57;;;6.88;;
836;SDS011;400;53.550;9.932;2023-04-06T04:28:36;7.45;;;6.80;;
836;SDS011;400;53.550;9.932;2023-04-06T04:31:03;7.88;;;7.07;;
836;SDS011;400;53.550;9.932;2023-04-06T04:33:33;8.18;;;7.45;;
836;SDS011;400;53.550;9.932;2023-04-06T04:36:02;8.55;;;7.13;;
836;SDS011;400;53.550;9.932;2023-04-06T04:38:30;11.63;;;7.68;;
836;SDS011;400;53.550;9.932;2023-04-06T04:40:57;10.60;;;7.57;;
836;SDS011;400;53.550;9.932;2023-04-06T04:43:25;9.38;;;7.63;;
836;SDS011;400;53.550;9.932;2023-04-06T04:45:56;9.65;;;8.30;;
836;SDS011;400;53.550;9.932;2023-04-06T04:48:27;13.52;;;8.85;;
836;SDS011;400;53.550;9.932;2023-04-06T04:50:55;9.45;;;8.35;;
836;SDS011;400;53.550;9.932;2023-04-06T04:53:22;8.35;;;7.55;;
836;SDS011;400;53.550;9.932;2023-04-06T04:55:49;9.07;;;7.30;;
836;SDS011;400;53.550;9.932;2023-04-06T04:58:17;11.98;;;8.82;;
836;SDS011;400;53.550;9.932;2023-04-06T05:00:44;9.30;;;8.20;;
836;SDS011;400;53.550;9.932;2023-04-06T05:03:12;9.75;;;8.63;;
836;SDS011;400;53.550;9.932;2023-04-06T05:05:44;9.15;;;7.97;;
836;SDS011;400;53.550;9.932;2023-04-06T05:08:12;9.02;;;8.23;;
836;SDS011;400;53.550;9.932;2023-04-06T05:10:39;10.73;;;8.68;;
836;SDS011;400;53.550;9.932;2023-04-06T05:13:07;9.60;;;8.23;;
836;SDS011;400;53.550;9.932;2023-04-06T05:15:34;10.02;;;9.07;;
836;SDS011;400;53.550;9.932;2023-04-06T05:18:03;8.77;;;7.60;;
836;SDS011;400;53.550;9.932;2023-04-06T05:20:31;12.35;;;8.60;;
836;SDS011;400;53.550;9.932;2023-04-06T05:22:58;10.38;;;9.18;;
836;SDS011;400;53.550;9.932;2023-04-06T05:25:26;15.00;;;9.50;;
836;SDS011;400;53.550;9.932;2023-04-06T05:27:53;9.57;;;8.10;;
836;SDS011;400;53.550;9.932;2023-04-06T05:30:20;14.20;;;8.60;;
836;SDS011;400;53.550;9.932;2023-04-06T05:32:47;14.73;;;8.23;;
836;SDS011;400;53.550;9.932;2023-04-06T05:35:14;11.60;;;8.90;;
836;SDS011;400;53.550;9.932;2023-04-06T05:37:42;10.13;;;8.93;;
836;SDS011;400;53.550;9.932;2023-04-06T05:40:10;15.30;;;9.98;;
836;SDS011;400;53.550;9.932;2023-04-06T05:42:42;10.18;;;9.00;;
836;SDS011;400;53.550;9.932;2023-04-06T05:45:12;15.10;;;9.20;;
836;SDS011;400;53.550;9.932;2023-04-06T05:47:41;10.23;;;9.27;;
836;SDS011;400;53.550;9.932;2023-04-06T05:50:12;11.57;;;10.38;;
836;SDS011;400;53.550;9.932;2023-04-06T05:52:40;10.40;;;9.30;;
836;SDS011;400;53.550;9.932;2023-04-06T05:55:11;9.82;;;8.88;;
836;SDS011;400;53.550;9.932;2023-04-06T05:57:40;15.52;;;10.82;;
836;SDS011;400;53.550;9.932;2023-04-06T06:00:08;12.13;;;9.60;;
836;SDS011;400;53.550;9.932;2023-04-06T06:02:37;11.98;;;10.68;;
836;SDS011;400;53.550;9.932;2023-04-06T06:05:08;9.85;;;8.90;;
836;SDS011;400;53.550;9.932;2023-04-06T06:07:37;11.75;;;10.52;;
836;SDS011;400;53.550;9.932;2023-04-06T06:10:05;10.65;;;9.40;;
836;SDS011;400;53.550;9.932;2023-04-06T06:12:36;10.85;;;9.73;;
836;SDS011;400;53.550;9.932;2023-04-06T06:15:07;9.68;;;8.75;;
836;SDS011;400;53.550;9.932;2023-04-06T06:17:35;11.50;;;9.18;;
836;SDS011;400;53.550;9.932;2023-04-06T06:20:05;11.95;;;9.50;;
836;SDS011;400;53.550;9.932;2023-04-06T06:22:35;11.90;;;8.95;;
836;SDS011;400;53.550;9.932;2023-04-06T06:25:02;10.43;;;9.35;;
836;SDS011;400;53.550;9.932;2023-04-06T06:27:29;11.05;;;8.88;;
836;SDS011;400;53.550;9.932;2023-04-06T06:29:58;15.57;;;14.02;;
836;SDS011;400;53.550;9.932;2023-04-06T06:32:27;10.88;;;8.68;;
836;SDS011;400;53.550;9.932;2023-04-06T06:34:53;13.73;;;12.32;;
836;SDS011;400;53.550;9.932;2023-04-06T06:37:21;17.65;;;12.55;;
836;SDS011;400;53.550;9.932;2023-04-06T06:39:51;14.35;;;10.70;;
836;SDS011;400;53.550;9.932;2023-04-06T06:42:22;11.18;;;9.45;;
836;SDS011;400;53.550;9.932;2023-04-06T06:44:50;10.18;;;8.95;;
836;SDS011;400;53.550;9.932;2023-04-06T06:47:17;13.10;;;9.63;;
836;SDS011;400;53.550;9.932;2023-04-06T06:49:46;15.32;;;9.85;;
836;SDS011;400;53.550;9.932;2023-04-06T06:52:13;9.30;;;7.95;;
836;SDS011;400;53.550;9.932;2023-04-06T06:54:44;9.30;;;8.38;;
836;SDS011;400;53.550;9.932;2023-04-06T06:57:13;7.18;;;6.57;;
836;SDS011;400;53.550;9.932;2023-04-06T06:59:40;11.50;;;8.95;;
836;SDS011;400;53.550;9.932;2023-04-06T07:02:07;7.80;;;7.07;;
836;SDS011;400;53.550;9.932;2023-04-06T07:04:34;6.38;;;5.97;;
836;SDS011;400;53.550;9.932;2023-04-06T07:07:02;10.73;;;8.60;;
836;SDS011;400;53.550;9.932;2023-04-06T07:09:29;10.52;;;7.38;;
836;SDS011;400;53.550;9.932;2023-04-06T07:11:57;6.78;;;6.18;;
836;SDS011;400;53.550;9.932;2023-04-06T07:14:24;6.68;;;5.97;;
836;SDS011;400;53.550;9.932;2023-04-06T07:16:51;7.85;;;7.05;;
836;SDS011;400;53.550;9.932;2023-04-06T07:19:18;8.63;;;7.60;;
836;SDS011;400;53.550;9.932;2023-04-06T07:21:46;10.25;;;7.10;;
836;SDS011;400;53.550;9.932;2023-04-06T07:24:16;7.82;;;5.93;;
836;SDS011;400;53.550;9.932;2023-04-06T07:26:43;7.63;;;6.93;;
836;SDS011;400;53.550;9.932;2023-04-06T07:29:10;10.95;;;7.45;;
836;SDS011;400;53.550;9.932;2023-04-06T07:31:37;7.03;;;6.35;;
836;SDS011;400;53.550;9.932;2023-04-06T07:34:05;7.93;;;6.70;;
836;SDS011;400;53.550;9.932;2023-04-06T07:36:33;9.18;;;7.00;;
836;SDS011;400;53.550;9.932;2023-04-06T07:39:00;7.90;;;6.32;;
836;SDS011;400;53.550;9.932;2023-04-06T07:41:29;6.53;;;6.05;;
836;SDS011;400;53.550;9.932;2023-04-06T07:43:59;6.57;;;5.90;;
836;SDS011;400;53.550;9.932;2023-04-06T07:46:30;6.35;;;5.85;;
836;SDS011;400;53.550;9.932;2023-04-06T07:48:59;8.55;;;6.72;;
836;SDS011;400;53.550;9.932;2023-04-06T07:51:27;6.50;;;5.90;;
836;SDS011;400;53.550;9.932;2023-04-06T07:53:56;7.38;;;6.68;;
836;SDS011;400;53.550;9.932;2023-04-06T07:56:23;7.43;;;6.38;;
836;SDS011;400;53.550;9.932;2023-04-06T07:58:51;6.78;;;6.15;;
836;SDS011;400;53.550;9.932;2023-04-06T08:01:20;7.35;;;6.65;;
836;SDS011;400;53.550;9.932;2023-04-06T08:03:47;10.02;;;6.20;;
836;SDS011;400;53.550;9.932;2023-04-06T08:06:14;7.30;;;6.05;;
836;SDS011;400;53.550;9.932;2023-04-06T08:08:41;6.32;;;5.75;;
836;SDS011;400;53.550;9.932;2023-04-06T08:11:09;7.55;;;6.68;;
836;SDS011;400;53.550;9.932;2023-04-06T08:13:39;7.15;;;6.00;;
836;SDS011;400;53.550;9.932;2023-04-06T08:16:15;7.15;;;6.13;;
836;SDS011;400;53.550;9.932;2023-04-06T08:18:47;6.22;;;5.72;;
836;SDS011;400;53.550;9.932;2023-04-06T08:21:17;7.97;;;6.32;;
836;SDS011;400;53.550;9.932;2023-04-06T08:23:47;6.35;;;5.75;;
836;SDS011;400;53.550;9.932;2023-04-06T08:26:14;8.63;;;6.20;;
836;SDS011;400;53.550;9.932;2023-04-06T08:28:41;6.95;;;6.10;;
836;SDS011;400;53.550;9.932;2023-04-06T08:31:08;7.10;;;6.30;;
836;SDS011;400;53.550;9.932;2023-04-06T08:33:37;7.03;;;6.40;;
836;SDS011;400;53.550;9.932;2023-04-06T08:36:07;11.00;;;6.40;;
836;SDS011;400;53.550;9.932;2023-04-06T08:38:37;6.53;;;5.93;;
836;SDS011;400;53.550;9.932;2023-04-06T08:41:07;7.53;;;6.60;;
836;SDS011;400;53.550;9.932;2023-04-06T08:43:37;7.25;;;5.88;;
836;SDS011;400;53.550;9.932;2023-04-06T08:46:10;24.70;;;10.35;;
836;SDS011;400;53.550;9.932;2023-04-06T08:48:40;8.75;;;5.40;;
836;SDS011;400;53.550;9.932;2023-04-06T08:51:10;6.90;;;6.32;;
836;SDS011;400;53.550;9.932;2023-04-06T08:53:38;6.38;;;5.78;;
836;SDS011;400;53.550;9.932;2023-04-06T08:56:08;6.63;;;5.90;;
836;SDS011;400;53.550;9.932;2023-04-06T08:58:39;6.22;;;5.63;;
836;SDS011;400;53.550;9.932;2023-04-06T09:01:07;6.25;;;5.65;;
836;SDS011;400;53.550;9.932;2023-04-06T09:03:36;6.35;;;5.85;;
836;SDS011;400;53.550;9.932;2023-04-06T09:06:06;6.88;;;6.05;;
836;SDS011;400;53.550;9.932;2023-04-06T09:08:34;9.05;;;5.70;;
836;SDS011;400;53.550;9.932;2023-04-06T09:11:01;5.35;;;4.88;;
836;SDS011;400;53.550;9.932;2023-04-06T09:13:43;5.25;;;4.75;;
836;SDS011;400;53.550;9.932;2023-04-06T09:16:12;6.30;;;5.70;;
836;SDS011;400;53.550;9.932;2023-04-06T09:18:40;6.03;;;5.43;;
836;SDS011;400;53.550;9.932;2023-04-06T09:21:09;6.22;;;5.60;;
836;SDS011;400;53.550;9.932;2023-04-06T09:23:38;4.75;;;3.90;;
836;SDS011;400;53.550;9.932;2023-04-06T09:26:09;6.97;;;5.20;;
836;SDS011;400;53.550;9.932;2023-04-06T09:28:45;6.03;;;5.43;;
836;SDS011;400;53.550;9.932;2023-04-06T09:31:17;5.20;;;4.65;;
836;SDS011;400;53.550;9.932;2023-04-06T09:33:48;8.93;;;5.68;;
836;SDS011;400;53.550;9.932;2023-04-06T09:36:16;5.47;;;4.97;;
836;SDS011;400;53.550;9.932;2023-04-06T09:38:53;6.13;;;4.10;;
836;SDS011;400;53.550;9.932;2023-04-06T09:41:22;5.32;;;4.80;;
836;SDS011;400;53.550;9.932;2023-04-06T09:43:50;4.20;;;3.80;;
836;SDS011;400;53.550;9.932;2023-04-06T09:46:18;4.55;;;4.15;;
836;SDS011;400;53.550;9.932;2023-04-06T09:48:48;5.50;;;4.95;;
836;SDS011;400;53.550;9.932;2023-04-06T09:51:18;8.20;;;4.60;;
836;SDS011;400;53.550;9.932;2023-04-06T09:53:47;4.90;;;4.33;;
836;SDS011;400;53.550;9.932;2023-04-06T09:56:19;4.45;;;4.05;;
836;SDS011;400;53.550;9.932;2023-04-06T09:58:53;4.40;;;4.00;;
836;SDS011;400;53.550;9.932;2023-04-06T10:01:30;5.73;;;4.40;;
836;SDS011;400;53.550;9.932;2023-04-06T10:04:03;4.10;;;3.70;;
836;SDS011;400;53.550;9.932;2023-04-06T10:06:38;4.40;;;4.00;;
836;SDS011;400;53.550;9.932;2023-04-06T10:09:06;5.60;;;4.13;;
836;SDS011;400;53.550;9.932;2023-04-06T10:11:35;4.60;;;4.20;;
836;SDS011;400;53.550;9.932;2023-04-06T10:14:06;5.20;;;4.20;;
836;SDS011;400;53.550;9.932;2023-04-06T10:16:34;3.83;;;3.30;;
836;SDS011;400;53.550;9.932;2023-04-06T10:19:06;4.13;;;3.30;;
836;SDS011;400;53.550;9.932;2023-04-06T10:21:45;4.60;;;4.20;;
836;SDS011;400;53.550;9.932;2023-04-06T10:24:20;4.90;;;4.03;;
836;SDS011;400;53.550;9.932;2023-04-06T10:26:56;4.90;;;4.13;;
836;SDS011;400;53.550;9.932;2023-04-06T10:29:24;4.90;;;4.18;;
836;SDS011;400;53.550;9.932;2023-04-06T10:31:51;4.30;;;4.00;;
836;SDS011;400;53.550;9.932;2023-04-06T10:34:20;8.83;;;5.60;;
836;SDS011;400;53.550;9.932;2023-04-06T10:36:48;4.47;;;4.10;;
836;SDS011;400;53.550;9.932;2023-04-06T10:39:15;4.67;;;4.30;;
836;SDS011;400;53.550;9.932;2023-04-06T10:41:55;7.63;;;6.83;;
836;SDS011;400;53.550;9.932;2023-04-06T10:44:33;7.80;;;4.73;;
836;SDS011;400;53.550;9.932;2023-04-06T10:47:15;4.60;;;4.20;;
836;SDS011;400;53.550;9.932;2023-04-06T10:49:44;6.00;;;4.40;;
836;SDS011;400;53.550;9.932;2023-04-06T10:52:18;7.43;;;4.70;;
836;SDS011;400;53.550;9.932;2023-04-06T10:54:49;5.57;;;5.07;;
836;SDS011;400;53.550;9.932;2023-04-06T10:57:28;5.20;;;4.70;;
836;SDS011;400;53.550;9.932;2023-04-06T11:00:04;4.83;;;4.43;;
836;SDS011;400;53.550;9.932;2023-04-06T11:02:35;5.10;;;4.60;;
836;SDS011;400;53.550;9.932;2023-04-06T11:05:06;6.47;;;5.37;;
836;SDS011;400;53.550;9.932;2023-04-06T11:07:45;6.10;;;5.50;;
836;SDS011;400;53.550;9.932;2023-04-06T11:10:11;9.20;;;5.53;;
836;SDS011;400;53.550;9.932;2023-04-06T11:12:51;7.13;;;5.80;;
836;SDS011;400;53.550;9.932;2023-04-06T11:15:20;6.17;;;5.67;;
836;SDS011;400;53.550;9.932;2023-04-06T11:17:51;7.90;;;6.30;;
836;SDS011;400;53.550;9.932;2023-04-06T11:20:18;5.77;;;5.27;;
836;SDS011;400;53.550;9.932;2023-04-06T11:22:50;6.47;;;5.70;;
836;SDS011;400;53.550;9.932;2023-04-06T11:25:19;6.77;;;6.17;;
836;SDS011;400;53.550;9.932;2023-04-06T11:27:46;5.93;;;5.37;;
836;SDS011;400;53.550;9.932;2023-04-06T11:30:14;5.63;;;5.10;;
836;SDS011;400;53.550;9.932;2023-04-06T11:32:44;6.50;;;5.90;;
836;SDS011;400;53.550;9.932;2023-04-06T11:35:19;6.43;;;5.50;;
836;SDS011;400;53.550;9.932;2023-04-06T11:37:49;8.07;;;6.27;;
836;SDS011;400;53.550;9.932;2023-04-06T11:40:22;6.53;;;5.97;;
836;SDS011;400;53.550;9.932;2023-04-06T11:42:53;6.50;;;5.90;;
836;SDS011;400;53.550;9.932;2023-04-06T11:45:22;6.77;;;6.07;;
836;SDS011;400;53.550;9.932;2023-04-06T11:47:55;7.60;;;6.20;;
836;SDS011;400;53.550;9.932;2023-04-06T11:50:31;6.87;;;6.17;;
836;SDS011;400;53.550;9.932;2023-04-06T11:53:07;10.23;;;7.07;;
836;SDS011;400;53.550;9.932;2023-04-06T11:55:36;9.77;;;8.57;;
836;SDS011;400;53.550;9.932;2023-04-06T11:58:05;7.03;;;6.10;;
836;SDS011;400;53.550;9.932;2023-04-06T12:00:36;6.40;;;5.80;;
836;SDS011;400;53.550;9.932;2023-04-06T12:03:11;7.30;;;5.90;;
836;SDS011;400;53.550;9.932;2023-04-06T12:05:43;6.93;;;6.23;;
836;SDS011;400;53.550;9.932;2023-04-06T12:08:12;5.93;;;5.43;;
836;SDS011;400;53.550;9.932;2023-04-06T12:10:39;6.93;;;6.33;;
836;SDS011;400;53.550;9.932;2023-04-06T12:13:06;7.20;;;6.03;;
836;SDS011;400;53.550;9.932;2023-04-06T12:15:33;6.53;;;5.97;;
836;SDS011;400;53.550;9.932;2023-04-06T12:18:00;7.40;;;6.00;;
836;SDS011;400;53.550;9.932;2023-04-06T12:20:28;7.30;;;6.33;;
836;SDS011;400;53.550;9.932;2023-04-06T12:23:00;7.07;;;6.47;;
836;SDS011;400;53.550;9.932;2023-04-06T12:25:29;8.30;;;6.63;;
836;SDS011;400;53.550;9.932;2023-04-06T12:27:58;6.20;;;5.70;;
836;SDS011;400;53.550;9.932;2023-04-06T12:30:28;7.90;;;7.23;;
836;SDS011;400;53.550;9.932;2023-04-06T12:32:58;7.40;;;6.80;;
836;SDS011;400;53.550;9.932;2023-04-06T12:35:25;7.00;;;6.33;;
836;SDS011;400;53.550;9.932;2023-04-06T12:37:54;7.37;;;6.67;;
836;SDS011;400;53.550;9.932;2023-04-06T12:40:26;7.37;;;6.67;;
836;SDS011;400;53.550;9.932;2023-04-06T12:43:02;7.17;;;6.47;;
836;SDS011;400;53.550;9.932;2023-04-06T12:48:01;7.67;;;6.70;;
836;SDS011;400;53.550;9.932;2023-04-06T12:50:32;6.70;;;6.10;;
836;SDS011;400;53.550;9.932;2023-04-06T12:53:02;7.60;;;6.80;;
836;SDS011;400;53.550;9.932;2023-04-06T12:55:31;7.37;;;6.67;;
836;SDS011;400;53.550;9.932;2023-04-06T12:58:10;9.00;;;6.90;;
836;SDS011;400;53.550;9.932;2023-04-06T13:00:41;8.00;;;7.30;;
836;SDS011;400;53.550;9.932;2023-04-06T13:03:16;8.60;;;7.00;;
836;SDS011;400;53.550;9.932;2023-04-06T13:05:49;8.20;;;7.40;;
836;SDS011;400;53.550;9.932;2023-04-06T13:08:20;7.67;;;6.90;;
836;SDS011;400;53.550;9.932;2023-04-06T13:10:51;8.43;;;7.70;;
836;SDS011;400;53.550;9.932;2023-04-06T13:13:23;8.80;;;7.33;;
836;SDS011;400;53.550;9.932;2023-04-06T13:15:51;7.70;;;7.00;;
836;SDS011;400;53.550;9.932;2023-04-06T13:18:19;9.10;;;7.50;;
836;SDS011;400;53.550;9.932;2023-04-06T13:20:50;7.20;;;6.60;;
836;SDS011;400;53.550;9.932;2023-04-06T13:23:21;11.10;;;7.33;;
836;SDS011;400;53.550;9.932;2023-04-06T13:25:56;8.23;;;6.70;;
836;SDS011;400;53.550;9.932;2023-04-06T13:28:29;7.33;;;6.63;;
836;SDS011;400;53.550;9.932;2023-04-06T13:31:03;6.90;;;6.20;;
836;SDS011;400;53.550;9.932;2023-04-06T13:33:34;6.60;;;6.10;;
836;SDS011;400;53.550;9.932;2023-04-06T13:36:06;8.60;;;7.80;;
836;SDS011;400;53.550;9.932;2023-04-06T13:38:39;8.57;;;7.70;;
836;SDS011;400;53.550;9.932;2023-04-06T13:41:09;6.90;;;6.30;;
836;SDS011;400;53.550;9.932;2023-04-06T13:43:49;6.87;;;6.27;;
836;SDS011;400;53.550;9.932;2023-04-06T13:46:21;7.83;;;7.13;;
836;SDS011;400;53.550;9.932;2023-04-06T13:48:49;7.10;;;6.40;;
836;SDS011;400;53.550;9.932;2023-04-06T13:51:24;7.23;;;6.63;;
836;SDS011;400;53.550;9.932;2023-04-06T13:53:59;6.60;;;6.03;;
836;SDS011;400;53.550;9.932;2023-04-06T13:56:29;6.67;;;6.10;;
836;SDS011;400;53.550;9.932;2023-04-06T13:59:02;7.37;;;6.63;;
836;SDS011;400;53.550;9.932;2023-04-06T14:01:33;6.23;;;5.63;;
836;SDS011;400;53.550;9.932;2023-04-06T14:04:06;7.13;;;6.43;;
836;SDS011;400;53.550;9.932;2023-04-06T14:06:36;6.20;;;5.70;;
836;SDS011;400;53.550;9.932;2023-04-06T14:09:06;7.23;;;5.17;;
836;SDS011;400;53.550;9.932;2023-04-06T14:11:34;6.33;;;5.83;;
836;SDS011;400;53.550;9.932;2023-04-06T14:14:04;7.03;;;6.40;;
836;SDS011;400;53.550;9.932;2023-04-06T14:16:32;6.47;;;5.87;;
836;SDS011;400;53.550;9.932;2023-04-06T14:19:00;6.27;;;5.67;;
836;SDS011;400;53.550;9.932;2023-04-06T14:21:32;6.60;;;6.10;;
836;SDS011;400;53.550;9.932;2023-04-06T14:24:04;7.57;;;6.87;;
836;SDS011;400;53.550;9.932;2023-04-06T14:26:35;8.20;;;7.50;;
836;SDS011;400;53.550;9.932;2023-04-06T14:29:17;7.00;;;6.03;;
836;SDS011;400;53.550;9.932;2023-04-06T14:31:45;7.50;;;6.80;;
836;SDS011;400;53.550;9.932;2023-04-06T14:34:15;6.27;;;5.67;;
836;SDS011;400;53.550;9.932;2023-04-06T14:36:46;7.53;;;6.83;;
836;SDS011;400;53.550;9.932;2023-04-06T14:39:14;8.10;;;7.30;;
836;SDS011;400;53.550;9.932;2023-04-06T14:41:43;8.10;;;7.40;;
836;SDS011;400;53.550;9.932;2023-04-06T14:44:17;7.60;;;7.00;;
836;SDS011;400;53.550;9.932;2023-04-06T14:46:49;7.40;;;6.80;;
836;SDS011;400;53.550;9.932;2023-04-06T14:49:21;7.70;;;7.00;;
836;SDS011;400;53.550;9.932;2023-04-06T14:51:51;6.90;;;6.30;;
836;SDS011;400;53.550;9.932;2023-04-06T14:54:19;7.80;;;7.00;;
836;SDS011;400;53.550;9.932;2023-04-06T14:56:55;8.90;;;7.20;;
836;SDS011;400;53.550;9.932;2023-04-06T14:59:26;7.33;;;6.63;;
836;SDS011;400;53.550;9.932;2023-04-06T15:02:00;7.00;;;6.40;;
836;SDS011;400;53.550;9.932;2023-04-06T15:04:35;8.30;;;7.50;;
836;SDS011;400;53.550;9.932;2023-04-06T15:07:02;7.27;;;6.67;;
836;SDS011;400;53.550;9.932;2023-04-06T15:09:30;8.83;;;7.93;;
836;SDS011;400;53.550;9.932;2023-04-06T15:11:58;10.07;;;7.73;;
836;SDS011;400;53.550;9.932;2023-04-06T15:14:30;7.20;;;6.30;;
836;SDS011;400;53.550;9.932;2023-04-06T15:17:02;7.23;;;6.60;;
836;SDS011;400;53.550;9.932;2023-04-06T15:19:31;7.37;;;6.60;;
836;SDS011;400;53.550;9.932;2023-04-06T15:21:59;6.83;;;6.30;;
836;SDS011;400;53.550;9.932;2023-04-06T15:24:26;7.17;;;6.57;;
836;SDS011;400;53.550;9.932;2023-04-06T15:26:53;7.03;;;6.43;;
836;SDS011;400;53.550;9.932;2023-04-06T15:29:21;8.57;;;7.73;;
836;SDS011;400;53.550;9.932;2023-04-06T15:31:49;8.30;;;7.50;;
836;SDS011;400;53.550;9.932;2023-04-06T15:34:16;14.87;;;13.50;;
836;SDS011;400;53.550;9.932;2023-04-06T15:36:45;45.27;;;40.70;;
836;SDS011;400;53.550;9.932;2023-04-06T15:39:16;45.23;;;40.17;;
836;SDS011;400;53.550;9.932;2023-04-06T15:41:46;12.47;;;11.13;;
836;SDS011;400;53.550;9.932;2023-04-06T15:44:17;20.63;;;18.70;;
836;SDS011;400;53.550;9.932;2023-04-06T15:46:46;14.00;;;12.77;;
836;SDS011;400;53.550;9.932;2023-04-06T15:49:14;9.17;;;8.37;;
836;SDS011;400;53.550;9.932;2023-04-06T15:51:45;13.03;;;11.60;;
836;SDS011;400;53.550;9.932;2023-04-06T15:54:13;9.13;;;8.33;;
836;SDS011;400;53.550;9.932;2023-04-06T15:56:40;13.33;;;11.83;;